createdAt,value
2023-04-25T00:00:42.776Z,45.97
2023-04-25T00:03:11.157Z,45.02
2023-04-25T00:05:40.043Z,44.70
2023-04-25T00:08:08.302Z,46.43
2023-04-25T00:10:36.493Z,45.68
2023-04-25T00:13:04.910Z,45.06
2023-04-25T00:15:33.181Z,46.61
2023-04-25T00:18:02.893Z,46.62
2023-04-25T00:20:31.888Z,45.09
2023-04-25T00:23:00.254Z,44.60
2023-04-25T00:25:35.871Z,43.73
2023-04-25T00:28:04.296Z,44.49
2023-04-25T00:30:32.515Z,44.90
2023-04-25T00:33:02.135Z,45.48
2023-04-25T00:35:30.394Z,45.99
2023-04-25T00:37:58.674Z,47.39
2023-04-25T00:40:26.906Z,47.02
2023-04-25T00:42:55.690Z,47.01
2023-04-25T00:45:23.953Z,46.23
2023-04-25T00:47:52.417Z,45.56
2023-04-25T00:50:22.028Z,46.31
2023-04-25T00:52:50.343Z,45.68
2023-04-25T00:55:18.643Z,45.81
2023-04-25T00:57:47.851Z,46.83
2023-04-25T01:00:16.829Z,46.19
2023-04-25T01:02:45.903Z,47.13
2023-04-25T01:05:14.568Z,47.88
2023-04-25T01:07:44.292Z,47.43
2023-04-25T01:10:12.842Z,46.42
2023-04-25T01:12:41.107Z,47.41
2023-04-25T01:15:09.788Z,46.89
2023-04-25T01:17:38.483Z,45.94
2023-04-25T01:20:08.395Z,46.71
2023-04-25T01:22:38.038Z,47.12
2023-04-25T01:25:07.282Z,47.70
2023-04-25T01:27:35.538Z,48.01
2023-04-25T01:30:04.424Z,47.81
2023-04-25T01:32:39.247Z,47.45
2023-04-25T01:35:10.452Z,45.64
2023-04-25T01:37:40.539Z,46.53
2023-04-25T01:40:09.696Z,46.50
2023-04-25T01:42:39.743Z,46.62
2023-04-25T01:45:09.988Z,45.67
2023-04-25T01:47:38.824Z,44.59
2023-04-25T01:50:09.079Z,43.95
2023-04-25T01:52:37.470Z,44.11
2023-04-25T01:55:08.264Z,43.03
2023-04-25T01:57:36.654Z,43.04
2023-04-25T02:00:10.015Z,42.80
2023-04-25T02:02:38.404Z,43.32
2023-04-25T02:05:07.832Z,42.48
2023-04-25T02:07:36.104Z,43.60
2023-04-25T02:10:04.680Z,43.75
2023-04-25T02:12:34.345Z,43.33
2023-04-25T02:15:02.854Z,42.96
2023-04-25T02:17:32.675Z,44.60
2023-04-25T02:20:00.938Z,44.12
2023-04-25T02:22:31.415Z,43.38
2023-04-25T02:24:59.669Z,43.85
2023-04-25T02:27:27.947Z,43.66
2023-04-25T02:29:57.544Z,43.73
2023-04-25T02:32:25.884Z,43.64
2023-04-25T02:34:54.198Z,43.65
2023-04-25T02:37:22.513Z,43.44
2023-04-25T02:39:50.906Z,45.33
2023-04-25T02:42:19.294Z,43.60
2023-04-25T02:44:47.624Z,45.67
2023-04-25T02:47:17.317Z,44.71
2023-04-25T02:49:46.190Z,45.14
2023-04-25T02:52:14.473Z,45.82
2023-04-25T02:54:42.764Z,44.70
2023-04-25T02:57:11.213Z,45.33
2023-04-25T02:59:39.467Z,46.06
2023-04-25T03:02:07.744Z,45.68
2023-04-25T03:04:37.925Z,46.10
2023-04-25T03:07:06.271Z,46.58
2023-04-25T03:09:34.611Z,46.81
2023-04-25T03:12:02.975Z,47.24
2023-04-25T03:14:31.259Z,47.59
2023-04-25T03:16:59.499Z,48.28
2023-04-25T03:19:27.910Z,47.93
2023-04-25T03:21:57.521Z,49.26
2023-04-25T03:24:25.770Z,49.70
2023-04-25T03:26:54.026Z,50.41
2023-04-25T03:29:25.401Z,50.47
2023-04-25T03:31:53.879Z,53.41
2023-04-25T03:34:22.957Z,54.08
2023-04-25T03:36:51.334Z,55.16
2023-04-25T03:39:20.943Z,53.21
2023-04-25T03:41:49.189Z,53.82
2023-04-25T03:44:17.459Z,56.99
2023-04-25T03:46:45.698Z,54.33
2023-04-25T03:49:14.011Z,54.54
2023-04-25T03:51:42.205Z,54.97
2023-04-25T03:54:10.472Z,54.98
2023-04-25T03:56:40.079Z,55.22
2023-04-25T03:59:08.833Z,53.63
2023-04-25T04:01:37.072Z,50.97
2023-04-25T04:04:05.760Z,50.83
2023-04-25T04:06:34.993Z,50.67
2023-04-25T04:09:03.274Z,51.47
2023-04-25T04:11:32.384Z,49.97
2023-04-25T04:14:02.022Z,50.31
2023-04-25T04:16:31.445Z,51.33
2023-04-25T04:19:00.859Z,52.46
2023-04-25T04:21:29.259Z,52.11
2023-04-25T04:23:58.775Z,52.07
2023-04-25T04:26:27.203Z,48.75
2023-04-25T04:28:56.042Z,48.11
2023-04-25T04:31:25.866Z,48.76
2023-04-25T04:33:54.167Z,47.04
2023-04-25T04:36:22.997Z,47.92
2023-04-25T04:38:51.309Z,47.35
2023-04-25T04:41:21.947Z,48.34
2023-04-25T04:43:50.118Z,48.66
2023-04-25T04:46:19.510Z,48.00
2023-04-25T04:48:49.176Z,48.14
2023-04-25T04:51:17.653Z,48.54
2023-04-25T04:53:45.917Z,48.57
2023-04-25T04:56:14.225Z,47.80
2023-04-25T04:58:42.520Z,48.48
2023-04-25T05:01:10.874Z,49.54
2023-04-25T05:03:39.308Z,46.41
2023-04-25T05:06:09.935Z,47.25
2023-04-25T05:08:38.614Z,45.63
2023-04-25T05:11:06.823Z,47.58
2023-04-25T05:13:35.046Z,46.36
2023-04-25T05:16:03.420Z,45.61
2023-04-25T05:18:31.909Z,49.54
2023-04-25T05:21:00.173Z,51.37
2023-04-25T05:23:32.606Z,52.71
2023-04-25T05:26:01.853Z,57.53
2023-04-25T05:28:30.112Z,55.69
2023-04-25T05:30:58.604Z,54.42
2023-04-25T05:33:26.799Z,52.44
2023-04-25T05:35:55.108Z,55.19
2023-04-25T05:38:23.374Z,56.28
2023-04-25T05:40:52.996Z,55.39
2023-04-25T05:43:21.310Z,54.92
2023-04-25T05:45:49.706Z,54.90
2023-04-25T05:48:18.000Z,54.27
2023-04-25T05:50:46.313Z,53.76
2023-04-25T05:53:14.619Z,52.35
2023-04-25T05:55:43.038Z,52.46
2023-04-25T05:58:12.675Z,50.59
2023-04-25T06:00:42.632Z,49.21
2023-04-25T06:03:11.637Z,46.47
2023-04-25T06:05:40.036Z,47.07
2023-04-25T06:08:08.272Z,49.63
2023-04-25T06:10:36.567Z,51.82
2023-04-25T06:13:04.985Z,55.41
2023-04-25T06:15:34.840Z,59.42
2023-04-25T06:18:03.250Z,62.17
2023-04-25T06:20:31.624Z,59.03
2023-04-25T06:23:00.471Z,62.48
2023-04-25T06:25:28.772Z,63.76
2023-04-25T06:27:57.051Z,58.55
2023-04-25T06:30:26.761Z,60.90
2023-04-25T06:32:56.407Z,59.17
2023-04-25T06:35:24.728Z,65.96
2023-04-25T06:37:52.965Z,65.77
2023-04-25T06:40:21.262Z,65.34
2023-04-25T06:42:49.589Z,67.93
2023-04-25T06:45:17.918Z,67.70
2023-04-25T06:47:46.199Z,58.74
2023-04-25T06:50:15.874Z,64.61
2023-04-25T06:52:44.104Z,63.42
2023-04-25T06:55:12.331Z,61.79
2023-04-25T06:57:40.584Z,61.54
2023-04-25T07:00:10.657Z,61.53
2023-04-25T07:02:39.238Z,60.60
2023-04-25T07:05:07.790Z,60.04
2023-04-25T07:07:37.406Z,63.44
2023-04-25T07:10:06.437Z,62.29
2023-04-25T07:12:34.788Z,59.40
2023-04-25T07:15:06.870Z,60.30
2023-04-25T07:17:35.858Z,61.40
2023-04-25T07:20:04.784Z,57.23
2023-04-25T07:22:33.191Z,52.51
2023-04-25T07:25:03.121Z,54.02
2023-04-25T07:27:31.463Z,56.91
2023-04-25T07:29:59.948Z,54.79
2023-04-25T07:32:28.677Z,50.23
2023-04-25T07:34:57.024Z,49.69
2023-04-25T07:37:26.421Z,49.29
2023-04-25T07:39:55.103Z,47.78
2023-04-25T07:42:24.879Z,47.04
2023-04-25T07:44:53.323Z,48.94
2023-04-25T07:47:21.598Z,48.03
2023-04-25T07:49:50.621Z,46.49
2023-04-25T07:52:18.947Z,48.27
2023-04-25T07:54:48.274Z,47.25
2023-04-25T07:57:18.110Z,51.02
2023-04-25T07:59:47.874Z,50.46
2023-04-25T08:02:16.182Z,50.64
2023-04-25T08:04:44.577Z,47.99
2023-04-25T08:07:12.922Z,49.80
2023-04-25T08:09:41.168Z,51.44
2023-04-25T08:12:09.592Z,47.06
2023-04-25T08:14:38.348Z,47.54
2023-04-25T08:17:08.237Z,50.18
2023-04-25T08:19:36.530Z,47.51
2023-04-25T08:22:04.918Z,47.01
2023-04-25T08:24:33.172Z,46.08
2023-04-25T08:27:01.661Z,43.96
2023-04-25T08:29:29.957Z,45.06
2023-04-25T08:31:58.221Z,45.75
2023-04-25T08:34:27.917Z,41.12
2023-04-25T08:36:56.176Z,40.74
2023-04-25T08:39:24.420Z,43.48
2023-04-25T08:41:53.925Z,44.59
2023-04-25T08:44:23.334Z,45.30
2023-04-25T08:46:52.793Z,45.00
2023-04-25T08:49:24.458Z,45.79
2023-04-25T08:51:54.974Z,45.17
2023-04-25T08:54:34.753Z,44.82
2023-04-25T08:57:06.365Z,42.80
2023-04-25T08:59:36.626Z,42.37
2023-04-25T09:02:06.113Z,45.14
2023-04-25T09:04:34.465Z,43.64
2023-04-25T09:07:04.060Z,43.35
2023-04-25T09:09:32.452Z,45.57
2023-04-25T09:12:02.643Z,42.68
2023-04-25T09:14:31.378Z,43.00
2023-04-25T09:17:01.463Z,42.08
2023-04-25T09:22:05.448Z,41.58
2023-04-25T09:24:36.031Z,43.11
2023-04-25T09:27:07.246Z,40.92
2023-04-25T09:29:37.284Z,39.74
2023-04-25T09:32:18.485Z,39.92
2023-04-25T09:34:49.310Z,40.34
2023-04-25T09:37:22.758Z,39.97
2023-04-25T09:39:52.292Z,37.62
2023-04-25T09:42:24.789Z,38.40
2023-04-25T09:44:54.399Z,38.92
2023-04-25T09:47:24.714Z,35.28
2023-04-25T09:49:53.755Z,39.27
2023-04-25T09:52:26.133Z,36.76
2023-04-25T09:54:55.081Z,38.09
2023-04-25T09:57:25.086Z,37.25
2023-04-25T09:59:54.641Z,38.00
2023-04-25T10:02:24.681Z,35.92
2023-04-25T10:04:55.976Z,38.63
2023-04-25T10:07:28.206Z,38.61
2023-04-25T10:10:00.464Z,40.10
2023-04-25T10:12:28.777Z,39.98
2023-04-25T10:14:57.304Z,39.91
2023-04-25T10:17:25.675Z,41.19
2023-04-25T10:19:54.269Z,40.39
2023-04-25T10:22:28.665Z,39.78
2023-04-25T10:24:57.475Z,39.14
2023-04-25T10:27:25.771Z,36.61
2023-04-25T10:30:05.385Z,37.71
2023-04-25T10:32:34.484Z,37.12
2023-04-25T10:35:13.186Z,37.82
2023-04-25T10:37:58.775Z,38.43
2023-04-25T10:40:27.033Z,37.82
2023-04-25T10:42:55.684Z,37.14
2023-04-25T10:45:24.353Z,37.02
2023-04-25T10:47:52.832Z,35.83
2023-04-25T10:50:21.067Z,38.53
2023-04-25T10:52:50.796Z,37.29
2023-04-25T10:55:19.073Z,41.19
2023-04-25T10:57:49.340Z,41.96
2023-04-25T11:00:19.705Z,45.16
2023-04-25T11:02:50.242Z,48.32
2023-04-25T11:05:23.839Z,56.12
2023-04-25T11:08:06.291Z,62.26
2023-04-25T11:10:37.159Z,61.51
2023-04-25T11:13:05.857Z,85.92
2023-04-25T11:15:34.199Z,100.00
2023-04-25T11:18:03.174Z,100.00
2023-04-25T11:20:31.841Z,100.00
2023-04-25T11:25:31.871Z,100.00
2023-04-25T11:28:02.201Z,100.00
2023-04-25T11:30:31.680Z,100.00
2023-04-25T11:33:00.186Z,100.00
2023-04-25T11:35:28.478Z,100.00
2023-04-25T11:37:56.806Z,100.00
2023-04-25T11:40:26.694Z,94.58
2023-04-25T11:42:55.005Z,83.04
2023-04-25T11:45:25.289Z,76.64
2023-04-25T11:47:53.930Z,75.00
2023-04-25T11:50:22.345Z,72.26
2023-04-25T11:52:51.445Z,75.06
2023-04-25T11:55:22.104Z,80.11
2023-04-25T11:57:52.966Z,77.94
2023-04-25T12:00:23.570Z,86.18
2023-04-25T12:02:54.661Z,81.45
2023-04-25T12:05:32.766Z,80.63
2023-04-25T12:08:14.584Z,83.48
2023-04-25T12:10:44.025Z,77.43
2023-04-25T12:13:27.691Z,75.30
2023-04-25T12:15:56.912Z,79.81
2023-04-25T12:18:28.400Z,85.52
2023-04-25T12:20:57.196Z,76.84
2023-04-25T12:23:29.589Z,79.66
2023-04-25T12:25:58.722Z,78.45
2023-04-25T12:28:29.153Z,74.43
2023-04-25T12:30:59.485Z,70.11
2023-04-25T12:33:28.947Z,75.01
2023-04-25T12:35:57.505Z,66.54
2023-04-25T12:38:26.726Z,68.61
2023-04-25T12:40:55.139Z,67.87
2023-04-25T12:43:24.323Z,67.61
2023-04-25T12:45:54.936Z,66.34
2023-04-25T12:48:23.004Z,75.30
2023-04-25T12:50:52.797Z,76.51
2023-04-25T12:53:22.462Z,76.61
2023-04-25T12:55:51.032Z,80.66
2023-04-25T12:58:20.973Z,93.80
2023-04-25T13:00:49.477Z,100.00
2023-04-25T13:03:19.851Z,100.00
2023-04-25T13:05:48.307Z,100.00
2023-04-25T13:08:16.596Z,96.45
2023-04-25T13:10:45.181Z,93.24
2023-04-25T13:13:13.561Z,100.00
2023-04-25T13:15:41.815Z,100.00
2023-04-25T13:18:10.234Z,100.00
2023-04-25T13:20:39.899Z,97.99
2023-04-25T13:23:08.214Z,92.86
2023-04-25T13:25:36.597Z,88.90
2023-04-25T13:28:05.713Z,85.55
2023-04-25T13:30:33.961Z,87.68
2023-04-25T13:33:04.330Z,90.66
2023-04-25T13:35:32.674Z,85.67
2023-04-25T13:38:02.820Z,90.62
2023-04-25T13:40:31.682Z,85.09
2023-04-25T13:43:00.287Z,89.09
2023-04-25T13:45:29.002Z,85.10
2023-04-25T13:47:57.896Z,84.90
2023-04-25T13:50:26.828Z,83.37
2023-04-25T13:52:55.125Z,80.14
2023-04-25T13:55:24.781Z,79.52
2023-04-25T13:57:53.306Z,83.21
2023-04-25T14:00:22.148Z,82.15
2023-04-25T14:02:50.905Z,82.28
2023-04-25T14:05:19.342Z,80.35
2023-04-25T14:07:47.593Z,81.48
2023-04-25T14:10:16.688Z,80.50
2023-04-25T14:12:46.586Z,73.02
2023-04-25T14:15:14.973Z,72.17
2023-04-25T14:17:43.241Z,74.87
2023-04-25T14:20:12.546Z,72.84
2023-04-25T14:22:44.068Z,72.49
2023-04-25T14:25:12.888Z,68.40
2023-04-25T14:27:41.382Z,75.34
2023-04-25T14:30:12.857Z,78.86
2023-04-25T14:32:41.424Z,85.86
2023-04-25T14:35:11.145Z,80.15
2023-04-25T14:37:40.336Z,90.42
2023-04-25T14:40:11.669Z,86.39
2023-04-25T14:42:40.207Z,85.81
2023-04-25T14:45:09.955Z,85.65
2023-04-25T14:47:39.932Z,79.75
2023-04-25T14:50:09.536Z,76.01
2023-04-25T14:52:38.177Z,74.51
2023-04-25T14:55:06.779Z,70.47
2023-04-25T14:57:35.478Z,80.51
2023-04-25T15:00:09.453Z,74.58
2023-04-25T15:02:39.526Z,82.14
2023-04-25T15:05:09.583Z,97.94
2023-04-25T15:07:38.071Z,100.00
2023-04-25T15:10:11.968Z,100.00
2023-04-25T15:12:40.306Z,100.00
2023-04-25T15:15:14.272Z,100.00
2023-04-25T15:17:47.462Z,100.00
2023-04-25T15:20:16.097Z,100.00
2023-04-25T15:22:45.859Z,100.00
2023-04-25T15:25:14.084Z,100.00
2023-04-25T15:27:44.818Z,100.00
2023-04-25T15:30:16.138Z,100.00
2023-04-25T15:32:45.006Z,100.00
2023-04-25T15:35:15.665Z,100.00
2023-04-25T15:37:43.801Z,100.00
2023-04-25T15:40:13.986Z,100.00
2023-04-25T15:42:44.367Z,100.00
2023-04-25T15:45:13.475Z,100.00
2023-04-25T15:47:42.103Z,100.00
2023-04-25T15:50:11.435Z,100.00
2023-04-25T15:52:41.088Z,100.00
2023-04-25T15:55:11.611Z,100.00
2023-04-25T15:57:42.082Z,100.00
2023-04-25T16:00:13.079Z,100.00
2023-04-25T16:02:42.602Z,100.00
2023-04-25T16:05:12.891Z,100.00
2023-04-25T16:07:44.638Z,100.00
2023-04-25T16:10:13.467Z,100.00
2023-04-25T16:12:41.761Z,100.00
2023-04-25T16:15:11.501Z,100.00
2023-04-25T16:17:40.162Z,100.00
2023-04-25T16:20:10.682Z,100.00
2023-04-25T16:22:40.036Z,100.00
2023-04-25T16:25:10.561Z,100.00
2023-04-25T16:27:39.641Z,100.00
2023-04-25T16:30:09.937Z,100.00
2023-04-25T16:32:39.807Z,100.00
2023-04-25T16:35:09.533Z,100.00
2023-04-25T16:37:37.858Z,100.00
2023-04-25T16:40:09.016Z,100.00
2023-04-25T16:42:38.654Z,100.00
2023-04-25T16:45:07.646Z,100.00
2023-04-25T16:47:36.327Z,100.00
2023-04-25T16:50:05.185Z,100.00
2023-04-25T16:52:33.454Z,100.00
2023-04-25T16:55:01.815Z,100.00
2023-04-25T16:57:30.233Z,100.00
2023-04-25T16:59:59.917Z,100.00
2023-04-25T17:02:28.624Z,100.00
2023-04-25T17:04:56.982Z,100.00
2023-04-25T17:07:25.328Z,100.00
2023-04-25T17:09:53.801Z,100.00
2023-04-25T17:12:22.347Z,100.00
2023-04-25T17:14:51.140Z,100.00
2023-04-25T17:17:21.424Z,100.00
2023-04-25T17:19:49.734Z,100.00
2023-04-25T17:22:18.142Z,100.00
2023-04-25T17:24:46.497Z,100.00
2023-04-25T17:27:14.845Z,100.00
2023-04-25T17:29:43.053Z,100.00
2023-04-25T17:32:11.481Z,100.00
2023-04-25T17:34:41.130Z,100.00
2023-04-25T17:37:15.113Z,100.00
2023-04-25T17:39:43.777Z,100.00
2023-04-25T17:42:12.794Z,100.00
2023-04-25T17:44:41.773Z,100.00
2023-04-25T17:47:11.521Z,100.00
2023-04-25T17:49:41.457Z,100.00
2023-04-25T17:52:10.091Z,100.00
2023-04-25T17:54:38.462Z,100.00
2023-04-25T17:57:07.100Z,100.00
2023-04-25T17:59:35.655Z,100.00
2023-04-25T18:02:04.027Z,100.00
2023-04-25T18:04:32.880Z,100.00
2023-04-25T18:07:02.537Z,100.00
2023-04-25T18:09:32.393Z,100.00
2023-04-25T18:12:01.334Z,100.00
2023-04-25T18:14:29.858Z,100.00
2023-04-25T18:16:58.077Z,100.00
2023-04-25T18:19:26.286Z,100.00
2023-04-25T18:21:56.156Z,100.00
2023-04-25T18:24:27.138Z,100.00
2023-04-25T18:26:57.327Z,100.00
2023-04-25T18:29:33.066Z,100.00
2023-04-25T18:32:05.259Z,100.00
2023-04-25T18:34:34.085Z,100.00
2023-04-25T18:37:02.405Z,100.00
2023-04-25T18:39:32.221Z,100.00
2023-04-25T18:42:04.637Z,100.00
2023-04-25T18:44:39.537Z,100.00
2023-04-25T18:47:07.977Z,100.00
2023-04-25T18:49:37.494Z,100.00
2023-04-25T18:52:08.444Z,100.00
2023-04-25T18:54:38.179Z,100.00
2023-04-25T18:57:07.136Z,100.00
2023-04-25T18:59:35.619Z,100.00
2023-04-25T19:02:05.602Z,100.00
2023-04-25T19:04:34.289Z,100.00
2023-04-25T19:07:03.574Z,100.00
2023-04-25T19:09:32.077Z,100.00
2023-04-25T19:12:02.492Z,100.00
2023-04-25T19:14:32.404Z,100.00
2023-04-25T19:17:00.852Z,100.00
2023-04-25T19:19:29.275Z,100.00
2023-04-25T19:21:59.108Z,100.00
2023-04-25T19:24:27.506Z,100.00
2023-04-25T19:26:55.785Z,100.00
2023-04-25T19:29:25.481Z,100.00
2023-04-25T19:31:54.551Z,100.00
2023-04-25T19:34:24.619Z,100.00
2023-04-25T19:36:54.518Z,100.00
2023-04-25T19:39:23.654Z,100.00
2023-04-25T19:41:52.258Z,100.00
2023-04-25T19:44:20.502Z,100.00
2023-04-25T19:46:50.753Z,100.00
2023-04-25T19:49:19.366Z,100.00
2023-04-25T19:51:47.631Z,100.00
2023-04-25T19:54:15.952Z,100.00
2023-04-25T19:56:44.216Z,100.00
2023-04-25T19:59:12.513Z,100.00
2023-04-25T20:01:40.948Z,100.00
2023-04-25T20:04:10.738Z,100.00
2023-04-25T20:06:39.076Z,100.00
2023-04-25T20:09:09.479Z,100.00
2023-04-25T20:11:37.817Z,100.00
2023-04-25T20:14:06.382Z,100.00
2023-04-25T20:16:34.657Z,100.00
2023-04-25T20:19:02.962Z,100.00
2023-04-25T20:21:34.144Z,100.00
2023-04-25T20:24:03.051Z,100.00
2023-04-25T20:26:33.837Z,100.00
2023-04-25T20:29:02.266Z,100.00
2023-04-25T20:31:32.669Z,100.00
2023-04-25T20:34:01.302Z,100.00
2023-04-25T20:36:29.737Z,100.00
2023-04-25T20:38:59.472Z,100.00
2023-04-25T20:41:27.711Z,100.00
2023-04-25T20:43:55.989Z,100.00
2023-04-25T20:46:24.909Z,100.00
2023-04-25T20:48:53.688Z,100.00
2023-04-25T20:51:22.952Z,100.00
2023-04-25T20:53:51.477Z,100.00
2023-04-25T20:56:21.145Z,100.00
2023-04-25T20:58:49.813Z,100.00
2023-04-25T21:01:18.727Z,100.00
2023-04-25T21:03:48.386Z,100.00
2023-04-25T21:06:16.974Z,100.00
2023-04-25T21:08:45.463Z,100.00
2023-04-25T21:11:13.883Z,100.00
2023-04-25T21:13:43.510Z,100.00
2023-04-25T21:16:11.773Z,100.00
2023-04-25T21:18:39.977Z,100.00
2023-04-25T21:21:08.500Z,100.00
2023-04-25T21:23:36.701Z,100.00
2023-04-25T21:26:04.911Z,100.00
2023-04-25T21:28:33.156Z,100.00
2023-04-25T21:31:02.780Z,100.00
2023-04-25T21:33:31.400Z,100.00
2023-04-25T21:36:00.039Z,100.00
2023-04-25T21:38:28.328Z,100.00
2023-04-25T21:40:56.665Z,100.00
2023-04-25T21:43:24.872Z,100.00
2023-04-25T21:46:19.089Z,100.00
2023-04-25T21:48:43.214Z,100.00
2023-04-25T21:51:12.051Z,100.00
2023-04-25T21:53:40.438Z,100.00
2023-04-25T21:56:09.014Z,100.00
2023-04-25T21:58:37.580Z,100.00
2023-04-25T22:01:05.849Z,100.00
2023-04-25T22:03:34.296Z,100.00
2023-04-25T22:06:04.917Z,100.00
2023-04-25T22:08:33.250Z,100.00
2023-04-25T22:11:02.857Z,100.00
2023-04-25T22:13:33.375Z,100.00
2023-04-25T22:16:02.057Z,100.00
2023-04-25T22:18:30.407Z,100.00
2023-04-25T22:20:58.754Z,100.00
2023-04-25T22:23:28.925Z,100.00
2023-04-25T22:25:57.203Z,100.00
2023-04-25T22:28:25.482Z,100.00
2023-04-25T22:30:53.683Z,100.00
2023-04-25T22:33:21.983Z,100.00
2023-04-25T22:35:50.208Z,100.00
2023-04-25T22:38:18.570Z,100.00
2023-04-25T22:40:48.362Z,100.00
2023-04-25T22:43:16.766Z,100.00
2023-04-25T22:45:45.046Z,100.00
2023-04-25T22:48:13.647Z,100.00
2023-04-25T22:50:41.917Z,100.00
2023-04-25T22:53:11.151Z,100.00
2023-04-25T22:55:39.894Z,100.00
2023-04-25T22:58:10.070Z,100.00
2023-04-25T23:00:38.324Z,100.00
2023-04-25T23:03:07.869Z,100.00
2023-04-25T23:05:36.442Z,100.00
2023-04-25T23:08:05.494Z,100.00
2023-04-25T23:10:33.817Z,100.00
2023-04-25T23:13:02.174Z,100.00
2023-04-25T23:15:31.956Z,100.00
2023-04-25T23:18:00.271Z,100.00
2023-04-25T23:20:28.571Z,100.00
2023-04-25T23:22:56.851Z,100.00
2023-04-25T23:25:25.971Z,100.00
2023-04-25T23:27:54.311Z,100.00
2023-04-25T23:30:23.048Z,100.00
2023-04-25T23:32:53.582Z,100.00
2023-04-25T23:35:21.639Z,100.00
2023-04-25T23:37:50.127Z,100.00
2023-04-25T23:40:18.656Z,100.00
2023-04-25T23:42:47.498Z,100.00
2023-04-25T23:45:16.692Z,100.00
2023-04-25T23:47:45.041Z,100.00
2023-04-25T23:50:14.709Z,100.00
2023-04-25T23:52:43.034Z,100.00
2023-04-25T23:55:11.412Z,100.00
2023-04-25T23:57:39.688Z,100.00
